sensor_id;sensor_type;location;lat;lon;timestamp;temperature;humidity
6740;DHT22;3407;49.882;10.920;2023-07-22T00:02:11;15.10;55.00
6740;DHT22;3407;49.882;10.920;2023-07-22T00:07:06;15.00;50.90
6740;DHT22;3407;49.882;10.920;2023-07-22T00:12:02;15.10;53.70
6740;DHT22;3407;49.882;10.920;2023-07-22T00:16:58;15.10;50.10
6740;DHT22;3407;49.882;10.920;2023-07-22T00:21:53;15.10;49.00
6740;DHT22;3407;49.882;10.920;2023-07-22T00:26:49;15.00;42.60
6740;DHT22;3407;49.882;10.920;2023-07-22T00:31:47;14.90;43.20
6740;DHT22;3407;49.882;10.920;2023-07-22T00:36:43;14.90;45.70
6740;DHT22;3407;49.882;10.920;2023-07-22T00:41:39;15.00;49.40
6740;DHT22;3407;49.882;10.920;2023-07-22T00:46:36;15.10;49.30
6740;DHT22;3407;49.882;10.920;2023-07-22T00:51:31;15.10;49.20
6740;DHT22;3407;49.882;10.920;2023-07-22T00:56:27;15.10;47.90
6740;DHT22;3407;49.882;10.920;2023-07-22T01:01:22;15.20;49.60
6740;DHT22;3407;49.882;10.920;2023-07-22T01:06:18;15.20;45.20
6740;DHT22;3407;49.882;10.920;2023-07-22T01:11:15;15.30;49.20
6740;DHT22;3407;49.882;10.920;2023-07-22T01:16:11;15.40;49.60
6740;DHT22;3407;49.882;10.920;2023-07-22T01:21:07;15.40;44.80
6740;DHT22;3407;49.882;10.920;2023-07-22T01:26:03;15.40;39.30
6740;DHT22;3407;49.882;10.920;2023-07-22T01:30:59;15.40;34.30
6740;DHT22;3407;49.882;10.920;2023-07-22T01:35:54;15.20;23.60
6740;DHT22;3407;49.882;10.920;2023-07-22T01:40:50;15.10;24.30
6740;DHT22;3407;49.882;10.920;2023-07-22T01:45:45;15.10;28.20
6740;DHT22;3407;49.882;10.920;2023-07-22T01:50:41;15.00;31.50
6740;DHT22;3407;49.882;10.920;2023-07-22T01:55:36;15.10;35.40
6740;DHT22;3407;49.882;10.920;2023-07-22T02:00:32;15.20;34.30
6740;DHT22;3407;49.882;10.920;2023-07-22T02:05:27;15.20;32.80
6740;DHT22;3407;49.882;10.920;2023-07-22T02:10:25;15.30;29.00
6740;DHT22;3407;49.882;10.920;2023-07-22T02:15:20;15.30;28.00
6740;DHT22;3407;49.882;10.920;2023-07-22T02:20:17;15.30;28.00
6740;DHT22;3407;49.882;10.920;2023-07-22T02:25:12;15.40;27.20
6740;DHT22;3407;49.882;10.920;2023-07-22T02:30:10;15.30;22.00
6740;DHT22;3407;49.882;10.920;2023-07-22T02:35:07;15.30;21.00
6740;DHT22;3407;49.882;10.920;2023-07-22T02:40:03;15.30;20.20
6740;DHT22;3407;49.882;10.920;2023-07-22T02:45:03;15.30;23.30
6740;DHT22;3407;49.882;10.920;2023-07-22T02:50:00;15.30;20.10
6740;DHT22;3407;49.882;10.920;2023-07-22T02:55:15;15.30;14.50
6740;DHT22;3407;49.882;10.920;2023-07-22T03:00:17;15.30;16.40
6740;DHT22;3407;49.882;10.920;2023-07-22T03:05:19;15.30;13.10
6740;DHT22;3407;49.882;10.920;2023-07-22T03:10:15;15.40;12.40
6740;DHT22;3407;49.882;10.920;2023-07-22T03:15:10;15.40;9.00
6740;DHT22;3407;49.882;10.920;2023-07-22T03:20:08;15.40;7.40
6740;DHT22;3407;49.882;10.920;2023-07-22T03:25:13;15.30;5.60
6740;DHT22;3407;49.882;10.920;2023-07-22T03:30:12;15.30;4.60
6740;DHT22;3407;49.882;10.920;2023-07-22T03:35:10;15.30;2.80
6740;DHT22;3407;49.882;10.920;2023-07-22T03:40:07;15.30;2.80
6740;DHT22;3407;49.882;10.920;2023-07-22T03:45:16;15.30;1.20
6740;DHT22;3407;49.882;10.920;2023-07-22T03:50:12;15.20;1.00
6740;DHT22;3407;49.882;10.920;2023-07-22T03:55:08;15.20;1.00
6740;DHT22;3407;49.882;10.920;2023-07-22T04:00:05;15.30;1.00
6740;DHT22;3407;49.882;10.920;2023-07-22T04:05:01;15.20;1.00
6740;DHT22;3407;49.882;10.920;2023-07-22T04:09:56;15.20;1.00
6740;DHT22;3407;49.882;10.920;2023-07-22T04:14:52;15.10;1.00
6740;DHT22;3407;49.882;10.920;2023-07-22T04:19:50;15.00;1.00
6740;DHT22;3407;49.882;10.920;2023-07-22T04:24:46;15.00;1.00
6740;DHT22;3407;49.882;10.920;2023-07-22T04:29:45;15.00;1.00
6740;DHT22;3407;49.882;10.920;2023-07-22T04:34:41;15.10;1.00
6740;DHT22;3407;49.882;10.920;2023-07-22T04:39:37;15.30;1.00
6740;DHT22;3407;49.882;10.920;2023-07-22T04:44:32;15.40;1.00
6740;DHT22;3407;49.882;10.920;2023-07-22T04:49:28;15.80;1.00
6740;DHT22;3407;49.882;10.920;2023-07-22T04:54:23;16.00;1.00
6740;DHT22;3407;49.882;10.920;2023-07-22T04:59:19;16.30;1.00
6740;DHT22;3407;49.882;10.920;2023-07-22T05:04:14;16.60;1.00
6740;DHT22;3407;49.882;10.920;2023-07-22T05:09:10;16.80;1.00
6740;DHT22;3407;49.882;10.920;2023-07-22T05:14:05;17.40;99.90
6740;DHT22;3407;49.882;10.920;2023-07-22T05:19:01;19.00;97.00
6740;DHT22;3407;49.882;10.920;2023-07-22T05:23:56;20.30;1.00
6740;DHT22;3407;49.882;10.920;2023-07-22T05:28:52;21.60;31.20
6740;DHT22;3407;49.882;10.920;2023-07-22T05:33:47;22.40;1.00
6740;DHT22;3407;49.882;10.920;2023-07-22T05:38:43;21.50;99.90
6740;DHT22;3407;49.882;10.920;2023-07-22T05:43:38;20.50;1.00
6740;DHT22;3407;49.882;10.920;2023-07-22T05:48:34;20.50;1.00
6740;DHT22;3407;49.882;10.920;2023-07-22T05:53:29;20.20;1.00
6740;DHT22;3407;49.882;10.920;2023-07-22T05:58:25;19.90;1.00
6740;DHT22;3407;49.882;10.920;2023-07-22T06:03:21;19.40;1.00
6740;DHT22;3407;49.882;10.920;2023-07-22T06:08:16;18.90;99.90
6740;DHT22;3407;49.882;10.920;2023-07-22T06:13:12;18.40;1.00
6740;DHT22;3407;49.882;10.920;2023-07-22T06:18:07;18.20;1.00
6740;DHT22;3407;49.882;10.920;2023-07-22T06:23:04;18.00;1.00
6740;DHT22;3407;49.882;10.920;2023-07-22T06:27:59;17.90;99.90
6740;DHT22;3407;49.882;10.920;2023-07-22T06:32:55;17.90;99.90
6740;DHT22;3407;49.882;10.920;2023-07-22T06:37:51;17.90;99.90
6740;DHT22;3407;49.882;10.920;2023-07-22T06:42:46;18.00;99.90
6740;DHT22;3407;49.882;10.920;2023-07-22T06:47:42;18.10;1.00
6740;DHT22;3407;49.882;10.920;2023-07-22T06:52:37;18.10;1.00
6740;DHT22;3407;49.882;10.920;2023-07-22T06:57:33;18.10;99.90
6740;DHT22;3407;49.882;10.920;2023-07-22T07:02:29;17.60;55.60
6740;DHT22;3407;49.882;10.920;2023-07-22T07:07:24;17.60;1.00
6740;DHT22;3407;49.882;10.920;2023-07-22T07:12:20;17.70;1.00
6740;DHT22;3407;49.882;10.920;2023-07-22T07:17:15;18.00;99.90
6740;DHT22;3407;49.882;10.920;2023-07-22T07:22:10;18.30;1.00
6740;DHT22;3407;49.882;10.920;2023-07-22T07:27:06;18.70;1.00
6740;DHT22;3407;49.882;10.920;2023-07-22T07:32:02;19.00;1.00
6740;DHT22;3407;49.882;10.920;2023-07-22T07:36:57;19.50;99.90
6740;DHT22;3407;49.882;10.920;2023-07-22T07:41:53;19.60;1.00
6740;DHT22;3407;49.882;10.920;2023-07-22T07:46:48;20.00;1.00
6740;DHT22;3407;49.882;10.920;2023-07-22T07:51:44;20.10;1.00
6740;DHT22;3407;49.882;10.920;2023-07-22T07:56:39;20.80;99.90
6740;DHT22;3407;49.882;10.920;2023-07-22T08:01:35;21.30;99.90
6740;DHT22;3407;49.882;10.920;2023-07-22T08:06:32;22.00;99.90
6740;DHT22;3407;49.882;10.920;2023-07-22T08:11:28;21.70;99.90
6740;DHT22;3407;49.882;10.920;2023-07-22T08:16:24;21.10;99.90
6740;DHT22;3407;49.882;10.920;2023-07-22T08:21:20;20.60;99.90
6740;DHT22;3407;49.882;10.920;2023-07-22T08:26:15;20.60;99.90
6740;DHT22;3407;49.882;10.920;2023-07-22T08:31:13;21.20;99.90
6740;DHT22;3407;49.882;10.920;2023-07-22T08:36:09;21.40;99.90
6740;DHT22;3407;49.882;10.920;2023-07-22T08:41:04;21.40;99.90
6740;DHT22;3407;49.882;10.920;2023-07-22T08:46:01;21.80;99.90
6740;DHT22;3407;49.882;10.920;2023-07-22T08:51:06;22.00;99.90
6740;DHT22;3407;49.882;10.920;2023-07-22T08:56:02;23.30;99.90
6740;DHT22;3407;49.882;10.920;2023-07-22T09:00:58;23.70;99.90
6740;DHT22;3407;49.882;10.920;2023-07-22T09:05:54;26.10;99.90
6740;DHT22;3407;49.882;10.920;2023-07-22T09:10:50;28.00;99.90
6740;DHT22;3407;49.882;10.920;2023-07-22T09:15:46;28.80;94.70
6740;DHT22;3407;49.882;10.920;2023-07-22T09:20:43;27.80;88.50
6740;DHT22;3407;49.882;10.920;2023-07-22T09:25:39;27.20;79.30
6740;DHT22;3407;49.882;10.920;2023-07-22T09:30:39;26.60;78.80
6740;DHT22;3407;49.882;10.920;2023-07-22T09:40:41;25.60;74.40
6740;DHT22;3407;49.882;10.920;2023-07-22T09:45:36;24.80;90.30
6740;DHT22;3407;49.882;10.920;2023-07-22T09:50:36;25.40;88.40
6740;DHT22;3407;49.882;10.920;2023-07-22T09:55:33;26.60;80.50
6740;DHT22;3407;49.882;10.920;2023-07-22T10:00:32;27.00;72.70
6740;DHT22;3407;49.882;10.920;2023-07-22T10:05:28;26.70;70.10
6740;DHT22;3407;49.882;10.920;2023-07-22T10:15:28;26.10;65.30
6740;DHT22;3407;49.882;10.920;2023-07-22T10:20:24;25.00;67.70
6740;DHT22;3407;49.882;10.920;2023-07-22T10:25:21;23.90;78.80
6740;DHT22;3407;49.882;10.920;2023-07-22T10:30:17;23.20;87.20
6740;DHT22;3407;49.882;10.920;2023-07-22T10:40:28;23.70;91.90
6740;DHT22;3407;49.882;10.920;2023-07-22T10:50:20;25.70;77.80
6740;DHT22;3407;49.882;10.920;2023-07-22T10:55:17;26.20;66.90
6740;DHT22;3407;49.882;10.920;2023-07-22T11:00:19;26.60;60.50
6740;DHT22;3407;49.882;10.920;2023-07-22T11:05:16;28.40;47.40
6740;DHT22;3407;49.882;10.920;2023-07-22T11:10:16;28.00;45.40
6740;DHT22;3407;49.882;10.920;2023-07-22T11:15:15;29.50;38.70
6740;DHT22;3407;49.882;10.920;2023-07-22T11:20:11;31.20;26.10
6740;DHT22;3407;49.882;10.920;2023-07-22T11:25:07;31.90;17.50
6740;DHT22;3407;49.882;10.920;2023-07-22T11:30:03;33.00;11.70
6740;DHT22;3407;49.882;10.920;2023-07-22T11:34:59;33.90;5.50
6740;DHT22;3407;49.882;10.920;2023-07-22T11:40:00;35.70;1.00
6740;DHT22;3407;49.882;10.920;2023-07-22T11:44:56;35.30;1.00
6740;DHT22;3407;49.882;10.920;2023-07-22T11:49:52;32.50;1.00
6740;DHT22;3407;49.882;10.920;2023-07-22T11:54:47;33.00;1.00
6740;DHT22;3407;49.882;10.920;2023-07-22T11:59:45;35.00;1.00
6740;DHT22;3407;49.882;10.920;2023-07-22T12:04:41;33.00;1.00
6740;DHT22;3407;49.882;10.920;2023-07-22T12:09:38;30.60;1.00
6740;DHT22;3407;49.882;10.920;2023-07-22T12:14:34;32.40;1.00
6740;DHT22;3407;49.882;10.920;2023-07-22T12:19:30;33.20;1.00
6740;DHT22;3407;49.882;10.920;2023-07-22T12:24:27;32.30;1.00
6740;DHT22;3407;49.882;10.920;2023-07-22T12:29:23;30.40;1.00
6740;DHT22;3407;49.882;10.920;2023-07-22T12:34:18;29.90;1.00
6740;DHT22;3407;49.882;10.920;2023-07-22T12:39:14;29.70;1.40
6740;DHT22;3407;49.882;10.920;2023-07-22T12:44:09;30.30;1.00
6740;DHT22;3407;49.882;10.920;2023-07-22T12:49:05;31.10;1.00
6740;DHT22;3407;49.882;10.920;2023-07-22T12:54:01;31.30;1.00
6740;DHT22;3407;49.882;10.920;2023-07-22T12:58:56;30.30;1.00
6740;DHT22;3407;49.882;10.920;2023-07-22T13:03:52;28.20;1.00
6740;DHT22;3407;49.882;10.920;2023-07-22T13:08:47;26.90;3.30
6740;DHT22;3407;49.882;10.920;2023-07-22T13:13:43;26.60;6.70
6740;DHT22;3407;49.882;10.920;2023-07-22T13:18:38;26.80;8.10
6740;DHT22;3407;49.882;10.920;2023-07-22T13:23:34;26.70;7.50
6740;DHT22;3407;49.882;10.920;2023-07-22T13:28:29;27.20;7.30
6740;DHT22;3407;49.882;10.920;2023-07-22T13:33:25;27.00;7.50
6740;DHT22;3407;49.882;10.920;2023-07-22T13:38:21;26.10;7.40
6740;DHT22;3407;49.882;10.920;2023-07-22T13:43:17;25.80;10.40
6740;DHT22;3407;49.882;10.920;2023-07-22T13:48:12;25.60;12.10
6740;DHT22;3407;49.882;10.920;2023-07-22T13:53:08;25.60;11.90
6740;DHT22;3407;49.882;10.920;2023-07-22T13:58:03;25.40;12.30
6740;DHT22;3407;49.882;10.920;2023-07-22T14:02:59;25.10;14.80
6740;DHT22;3407;49.882;10.920;2023-07-22T14:07:55;24.80;14.90
6740;DHT22;3407;49.882;10.920;2023-07-22T14:12:50;24.40;17.30
6740;DHT22;3407;49.882;10.920;2023-07-22T14:17:46;24.20;18.90
6740;DHT22;3407;49.882;10.920;2023-07-22T14:22:41;24.20;18.90
6740;DHT22;3407;49.882;10.920;2023-07-22T14:27:38;24.40;17.80
6740;DHT22;3407;49.882;10.920;2023-07-22T14:32:35;24.60;19.10
6740;DHT22;3407;49.882;10.920;2023-07-22T14:37:31;25.00;18.90
6740;DHT22;3407;49.882;10.920;2023-07-22T14:42:27;25.30;17.30
6740;DHT22;3407;49.882;10.920;2023-07-22T14:47:23;25.50;17.60
6740;DHT22;3407;49.882;10.920;2023-07-22T14:52:18;25.20;18.00
6740;DHT22;3407;49.882;10.920;2023-07-22T14:57:14;25.10;17.40
6740;DHT22;3407;49.882;10.920;2023-07-22T15:02:09;24.80;17.30
6740;DHT22;3407;49.882;10.920;2023-07-22T15:07:06;24.60;18.70
6740;DHT22;3407;49.882;10.920;2023-07-22T15:12:01;24.50;19.30
6740;DHT22;3407;49.882;10.920;2023-07-22T15:16:57;24.20;20.10
6740;DHT22;3407;49.882;10.920;2023-07-22T15:21:53;24.10;22.20
6740;DHT22;3407;49.882;10.920;2023-07-22T15:26:49;24.10;21.60
6740;DHT22;3407;49.882;10.920;2023-07-22T15:31:45;24.10;21.40
6740;DHT22;3407;49.882;10.920;2023-07-22T15:36:40;23.90;21.60
6740;DHT22;3407;49.882;10.920;2023-07-22T15:41:36;23.90;22.10
6740;DHT22;3407;49.882;10.920;2023-07-22T15:46:31;24.10;22.40
6740;DHT22;3407;49.882;10.920;2023-07-22T15:51:27;24.10;22.60
6740;DHT22;3407;49.882;10.920;2023-07-22T15:56:22;24.50;24.20
6740;DHT22;3407;49.882;10.920;2023-07-22T16:01:18;24.60;23.10
6740;DHT22;3407;49.882;10.920;2023-07-22T16:06:14;24.80;24.10
6740;DHT22;3407;49.882;10.920;2023-07-22T16:11:09;24.90;23.90
6740;DHT22;3407;49.882;10.920;2023-07-22T16:16:05;25.00;21.70
6740;DHT22;3407;49.882;10.920;2023-07-22T16:21:00;24.90;18.40
6740;DHT22;3407;49.882;10.920;2023-07-22T16:25:56;24.90;17.10
6740;DHT22;3407;49.882;10.920;2023-07-22T16:30:52;25.00;16.90
6740;DHT22;3407;49.882;10.920;2023-07-22T16:35:47;25.10;16.50
6740;DHT22;3407;49.882;10.920;2023-07-22T16:40:43;24.80;14.70
6740;DHT22;3407;49.882;10.920;2023-07-22T16:45:38;24.70;15.90
6740;DHT22;3407;49.882;10.920;2023-07-22T16:50:34;24.60;15.70
6740;DHT22;3407;49.882;10.920;2023-07-22T16:55:29;24.60;16.60
6740;DHT22;3407;49.882;10.920;2023-07-22T17:00:25;24.50;16.60
6740;DHT22;3407;49.882;10.920;2023-07-22T17:05:21;24.50;17.90
6740;DHT22;3407;49.882;10.920;2023-07-22T17:10:16;24.30;16.50
6740;DHT22;3407;49.882;10.920;2023-07-22T17:15:12;24.00;18.20
6740;DHT22;3407;49.882;10.920;2023-07-22T17:20:10;24.00;20.10
6740;DHT22;3407;49.882;10.920;2023-07-22T17:25:06;24.00;19.80
6740;DHT22;3407;49.882;10.920;2023-07-22T17:30:02;23.90;19.20
6740;DHT22;3407;49.882;10.920;2023-07-22T17:34:58;23.80;20.60
6740;DHT22;3407;49.882;10.920;2023-07-22T17:39:53;23.70;21.20
6740;DHT22;3407;49.882;10.920;2023-07-22T17:44:49;23.60;21.40
6740;DHT22;3407;49.882;10.920;2023-07-22T17:49:45;23.50;21.80
6740;DHT22;3407;49.882;10.920;2023-07-22T17:54:40;23.50;24.30
6740;DHT22;3407;49.882;10.920;2023-07-22T17:59:36;23.40;23.90
6740;DHT22;3407;49.882;10.920;2023-07-22T18:04:32;23.30;23.40
6740;DHT22;3407;49.882;10.920;2023-07-22T18:09:28;23.20;23.80
6740;DHT22;3407;49.882;10.920;2023-07-22T18:14:24;22.90;27.20
6740;DHT22;3407;49.882;10.920;2023-07-22T18:19:20;22.70;31.80
6740;DHT22;3407;49.882;10.920;2023-07-22T18:24:15;22.60;35.30
6740;DHT22;3407;49.882;10.920;2023-07-22T18:29:11;22.50;36.80
6740;DHT22;3407;49.882;10.920;2023-07-22T18:34:06;22.30;42.90
6740;DHT22;3407;49.882;10.920;2023-07-22T18:39:02;22.10;47.70
6740;DHT22;3407;49.882;10.920;2023-07-22T18:43:59;21.90;61.00
6740;DHT22;3407;49.882;10.920;2023-07-22T18:48:54;21.70;58.30
6740;DHT22;3407;49.882;10.920;2023-07-22T18:53:50;21.50;68.40
6740;DHT22;3407;49.882;10.920;2023-07-22T18:58:45;21.30;79.90
6740;DHT22;3407;49.882;10.920;2023-07-22T19:03:41;21.00;96.00
6740;DHT22;3407;49.882;10.920;2023-07-22T19:08:36;20.90;99.90
6740;DHT22;3407;49.882;10.920;2023-07-22T19:13:32;20.70;99.90
6740;DHT22;3407;49.882;10.920;2023-07-22T19:18:28;20.50;99.90
6740;DHT22;3407;49.882;10.920;2023-07-22T19:23:24;20.30;99.90
6740;DHT22;3407;49.882;10.920;2023-07-22T19:28:21;20.10;99.90
6740;DHT22;3407;49.882;10.920;2023-07-22T19:33:16;19.80;99.90
6740;DHT22;3407;49.882;10.920;2023-07-22T19:38:12;19.60;99.90
6740;DHT22;3407;49.882;10.920;2023-07-22T19:43:07;19.50;99.90
6740;DHT22;3407;49.882;10.920;2023-07-22T19:48:03;19.30;99.90
6740;DHT22;3407;49.882;10.920;2023-07-22T19:52:59;19.10;99.90
6740;DHT22;3407;49.882;10.920;2023-07-22T19:57:54;18.90;99.90
6740;DHT22;3407;49.882;10.920;2023-07-22T20:02:50;18.70;99.90
6740;DHT22;3407;49.882;10.920;2023-07-22T20:07:45;18.60;99.90
6740;DHT22;3407;49.882;10.920;2023-07-22T20:12:41;18.40;99.90
6740;DHT22;3407;49.882;10.920;2023-07-22T20:17:37;18.20;99.90
6740;DHT22;3407;49.882;10.920;2023-07-22T20:22:32;18.00;99.90
6740;DHT22;3407;49.882;10.920;2023-07-22T20:27:28;17.90;99.90
6740;DHT22;3407;49.882;10.920;2023-07-22T20:32:23;17.70;1.00
6740;DHT22;3407;49.882;10.920;2023-07-22T20:37:19;17.60;1.00
6740;DHT22;3407;49.882;10.920;2023-07-22T20:42:14;17.60;1.00
6740;DHT22;3407;49.882;10.920;2023-07-22T20:47:10;17.50;1.00
6740;DHT22;3407;49.882;10.920;2023-07-22T20:52:05;17.40;1.00
6740;DHT22;3407;49.882;10.920;2023-07-22T20:57:01;17.40;1.00
6740;DHT22;3407;49.882;10.920;2023-07-22T21:01:57;17.20;1.00
6740;DHT22;3407;49.882;10.920;2023-07-22T21:06:52;17.20;1.00
6740;DHT22;3407;49.882;10.920;2023-07-22T21:11:48;17.00;1.00
6740;DHT22;3407;49.882;10.920;2023-07-22T21:16:43;17.00;1.00
6740;DHT22;3407;49.882;10.920;2023-07-22T21:21:39;16.80;1.00
6740;DHT22;3407;49.882;10.920;2023-07-22T21:26:35;16.70;1.00
6740;DHT22;3407;49.882;10.920;2023-07-22T21:31:31;16.70;1.00
6740;DHT22;3407;49.882;10.920;2023-07-22T21:36:27;16.60;58.50
6740;DHT22;3407;49.882;10.920;2023-07-22T21:41:22;16.50;99.90
6740;DHT22;3407;49.882;10.920;2023-07-22T21:46:19;16.50;99.90
6740;DHT22;3407;49.882;10.920;2023-07-22T21:51:14;16.50;99.90
6740;DHT22;3407;49.882;10.920;2023-07-22T21:56:10;16.40;99.90
6740;DHT22;3407;49.882;10.920;2023-07-22T22:01:06;16.30;99.90
6740;DHT22;3407;49.882;10.920;2023-07-22T22:06:01;16.20;99.90
6740;DHT22;3407;49.882;10.920;2023-07-22T22:10:57;16.10;99.90
6740;DHT22;3407;49.882;10.920;2023-07-22T22:15:52;16.00;99.90
6740;DHT22;3407;49.882;10.920;2023-07-22T22:20:48;16.10;1.00
6740;DHT22;3407;49.882;10.920;2023-07-22T22:25:43;16.00;1.00
6740;DHT22;3407;49.882;10.920;2023-07-22T22:30:39;16.00;1.00
6740;DHT22;3407;49.882;10.920;2023-07-22T22:35:34;16.00;1.00
6740;DHT22;3407;49.882;10.920;2023-07-22T22:40:30;16.10;1.00
6740;DHT22;3407;49.882;10.920;2023-07-22T22:45:27;16.20;99.90
6740;DHT22;3407;49.882;10.920;2023-07-22T22:50:22;16.20;99.90
6740;DHT22;3407;49.882;10.920;2023-07-22T22:55:18;16.20;99.90
6740;DHT22;3407;49.882;10.920;2023-07-22T23:00:14;16.20;1.00
6740;DHT22;3407;49.882;10.920;2023-07-22T23:05:10;16.20;1.00
6740;DHT22;3407;49.882;10.920;2023-07-22T23:10:06;16.30;99.90
6740;DHT22;3407;49.882;10.920;2023-07-22T23:15:02;16.10;99.90
6740;DHT22;3407;49.882;10.920;2023-07-22T23:19:58;16.00;1.00
6740;DHT22;3407;49.882;10.920;2023-07-22T23:24:53;16.00;1.00
6740;DHT22;3407;49.882;10.920;2023-07-22T23:29:49;15.90;1.00
6740;DHT22;3407;49.882;10.920;2023-07-22T23:34:44;15.90;99.90
6740;DHT22;3407;49.882;10.920;2023-07-22T23:39:40;15.90;99.90
6740;DHT22;3407;49.882;10.920;2023-07-22T23:44:35;15.90;99.90
6740;DHT22;3407;49.882;10.920;2023-07-22T23:49:34;15.90;99.90
6740;DHT22;3407;49.882;10.920;2023-07-22T23:54:29;16.00;1.00
6740;DHT22;3407;49.882;10.920;2023-07-22T23:59:25;16.20;1.00
